sensor_id;sensor_type;location;lat;lon;timestamp;temperature;humidity
2387;DHT22;49473;50.772;8.768;2022-07-29T00:01:35;20.00;83.50
2387;DHT22;49473;50.772;8.768;2022-07-29T00:04:02;19.90;83.90
2387;DHT22;49473;50.772;8.768;2022-07-29T00:06:29;19.90;84.70
2387;DHT22;49473;50.772;8.768;2022-07-29T00:08:55;19.70;84.90
2387;DHT22;49473;50.772;8.768;2022-07-29T00:11:22;19.70;85.80
2387;DHT22;49473;50.772;8.768;2022-07-29T00:13:49;19.60;85.30
2387;DHT22;49473;50.772;8.768;2022-07-29T00:16:16;19.50;84.90
2387;DHT22;49473;50.772;8.768;2022-07-29T00:18:44;19.50;85.20
2387;DHT22;49473;50.772;8.768;2022-07-29T00:21:10;19.50;85.30
2387;DHT22;49473;50.772;8.768;2022-07-29T00:23:37;19.50;84.70
2387;DHT22;49473;50.772;8.768;2022-07-29T00:26:04;19.50;84.40
2387;DHT22;49473;50.772;8.768;2022-07-29T00:28:31;19.50;84.80
2387;DHT22;49473;50.772;8.768;2022-07-29T00:30:57;19.50;85.70
2387;DHT22;49473;50.772;8.768;2022-07-29T00:33:24;19.60;84.40
2387;DHT22;49473;50.772;8.768;2022-07-29T00:35:52;19.50;84.70
2387;DHT22;49473;50.772;8.768;2022-07-29T00:38:19;19.40;84.90
2387;DHT22;49473;50.772;8.768;2022-07-29T00:40:46;19.40;85.40
2387;DHT22;49473;50.772;8.768;2022-07-29T00:43:14;19.50;85.50
2387;DHT22;49473;50.772;8.768;2022-07-29T00:45:40;19.50;85.20
2387;DHT22;49473;50.772;8.768;2022-07-29T00:48:07;19.40;85.00
2387;DHT22;49473;50.772;8.768;2022-07-29T00:50:35;19.40;86.00
2387;DHT22;49473;50.772;8.768;2022-07-29T00:53:06;19.40;85.90
2387;DHT22;49473;50.772;8.768;2022-07-29T00:55:34;19.40;85.90
2387;DHT22;49473;50.772;8.768;2022-07-29T00:58:01;19.50;86.40
2387;DHT22;49473;50.772;8.768;2022-07-29T01:00:29;19.50;86.20
2387;DHT22;49473;50.772;8.768;2022-07-29T01:02:56;19.50;85.80
2387;DHT22;49473;50.772;8.768;2022-07-29T01:05:23;19.50;86.10
2387;DHT22;49473;50.772;8.768;2022-07-29T01:07:52;19.50;86.10
2387;DHT22;49473;50.772;8.768;2022-07-29T01:10:21;19.50;86.50
2387;DHT22;49473;50.772;8.768;2022-07-29T01:12:50;19.40;86.40
2387;DHT22;49473;50.772;8.768;2022-07-29T01:15:17;19.50;87.20
2387;DHT22;49473;50.772;8.768;2022-07-29T01:17:47;19.40;87.40
2387;DHT22;49473;50.772;8.768;2022-07-29T01:20:22;19.30;87.60
2387;DHT22;49473;50.772;8.768;2022-07-29T01:23:08;19.30;87.80
2387;DHT22;49473;50.772;8.768;2022-07-29T01:26:09;19.30;89.30
2387;DHT22;49473;50.772;8.768;2022-07-29T01:28:49;19.30;88.20
2387;DHT22;49473;50.772;8.768;2022-07-29T01:31:22;19.30;88.70
2387;DHT22;49473;50.772;8.768;2022-07-29T01:33:57;19.40;88.40
2387;DHT22;49473;50.772;8.768;2022-07-29T01:36:29;19.40;89.20
2387;DHT22;49473;50.772;8.768;2022-07-29T01:39:02;19.30;89.30
2387;DHT22;49473;50.772;8.768;2022-07-29T01:41:32;19.30;90.00
2387;DHT22;49473;50.772;8.768;2022-07-29T01:44:11;19.30;90.00
2387;DHT22;49473;50.772;8.768;2022-07-29T01:49:11;19.40;95.30
2387;DHT22;49473;50.772;8.768;2022-07-29T01:51:43;19.40;95.20
2387;DHT22;49473;50.772;8.768;2022-07-29T01:54:16;19.30;94.30
2387;DHT22;49473;50.772;8.768;2022-07-29T01:56:48;19.40;94.00
2387;DHT22;49473;50.772;8.768;2022-07-29T01:59:18;19.40;96.90
2387;DHT22;49473;50.772;8.768;2022-07-29T02:01:47;19.40;98.50
2387;DHT22;49473;50.772;8.768;2022-07-29T02:09:12;18.50;94.10
2387;DHT22;49473;50.772;8.768;2022-07-29T02:11:43;18.40;95.00
2387;DHT22;49473;50.772;8.768;2022-07-29T02:14:14;18.20;97.30
2387;DHT22;49473;50.772;8.768;2022-07-29T02:16:44;18.00;97.70
2387;DHT22;49473;50.772;8.768;2022-07-29T02:19:12;17.80;98.60
2387;DHT22;49473;50.772;8.768;2022-07-29T02:21:40;17.60;99.40
2387;DHT22;49473;50.772;8.768;2022-07-29T02:24:09;17.50;99.90
2387;DHT22;49473;50.772;8.768;2022-07-29T02:26:38;17.60;99.90
2387;DHT22;49473;50.772;8.768;2022-07-29T02:29:06;17.50;99.90
2387;DHT22;49473;50.772;8.768;2022-07-29T02:31:35;17.40;99.90
2387;DHT22;49473;50.772;8.768;2022-07-29T02:34:07;17.20;99.90
2387;DHT22;49473;50.772;8.768;2022-07-29T02:36:35;17.10;99.90
2387;DHT22;49473;50.772;8.768;2022-07-29T02:39:03;17.10;99.90
2387;DHT22;49473;50.772;8.768;2022-07-29T02:41:35;17.00;99.90
2387;DHT22;49473;50.772;8.768;2022-07-29T02:44:09;17.00;99.90
2387;DHT22;49473;50.772;8.768;2022-07-29T02:46:37;17.10;99.90
2387;DHT22;49473;50.772;8.768;2022-07-29T02:49:10;17.20;99.90
2387;DHT22;49473;50.772;8.768;2022-07-29T02:51:42;17.30;99.90
2387;DHT22;49473;50.772;8.768;2022-07-29T02:54:11;17.50;99.90
2387;DHT22;49473;50.772;8.768;2022-07-29T02:56:41;17.60;99.90
2387;DHT22;49473;50.772;8.768;2022-07-29T02:59:11;17.70;99.90
2387;DHT22;49473;50.772;8.768;2022-07-29T03:01:42;17.70;99.90
2387;DHT22;49473;50.772;8.768;2022-07-29T03:04:12;17.70;99.90
2387;DHT22;49473;50.772;8.768;2022-07-29T03:06:40;17.60;99.90
2387;DHT22;49473;50.772;8.768;2022-07-29T03:09:10;17.70;99.90
2387;DHT22;49473;50.772;8.768;2022-07-29T03:11:38;17.80;99.90
2387;DHT22;49473;50.772;8.768;2022-07-29T03:14:05;17.80;99.90
2387;DHT22;49473;50.772;8.768;2022-07-29T03:16:33;17.70;99.90
2387;DHT22;49473;50.772;8.768;2022-07-29T03:19:02;17.60;99.90
2387;DHT22;49473;50.772;8.768;2022-07-29T03:21:31;17.50;99.90
2387;DHT22;49473;50.772;8.768;2022-07-29T03:23:57;17.20;99.90
2387;DHT22;49473;50.772;8.768;2022-07-29T03:26:24;17.10;99.90
2387;DHT22;49473;50.772;8.768;2022-07-29T03:28:51;17.10;99.90
2387;DHT22;49473;50.772;8.768;2022-07-29T03:31:18;17.10;99.90
2387;DHT22;49473;50.772;8.768;2022-07-29T03:33:44;17.10;99.90
2387;DHT22;49473;50.772;8.768;2022-07-29T03:36:11;17.20;99.90
2387;DHT22;49473;50.772;8.768;2022-07-29T03:38:41;17.20;99.90
2387;DHT22;49473;50.772;8.768;2022-07-29T03:41:10;17.20;99.90
2387;DHT22;49473;50.772;8.768;2022-07-29T03:43:39;17.20;99.90
2387;DHT22;49473;50.772;8.768;2022-07-29T03:46:09;17.30;99.90
2387;DHT22;49473;50.772;8.768;2022-07-29T03:48:38;17.50;99.90
2387;DHT22;49473;50.772;8.768;2022-07-29T03:51:06;17.60;99.90
2387;DHT22;49473;50.772;8.768;2022-07-29T03:53:33;17.70;99.90
2387;DHT22;49473;50.772;8.768;2022-07-29T03:56:02;17.70;99.90
2387;DHT22;49473;50.772;8.768;2022-07-29T03:58:30;17.70;99.90
2387;DHT22;49473;50.772;8.768;2022-07-29T04:00:58;17.80;99.90
2387;DHT22;49473;50.772;8.768;2022-07-29T04:03:25;17.90;99.90
2387;DHT22;49473;50.772;8.768;2022-07-29T04:05:59;17.90;99.90
2387;DHT22;49473;50.772;8.768;2022-07-29T04:08:26;17.90;99.90
2387;DHT22;49473;50.772;8.768;2022-07-29T04:10:53;17.90;99.90
2387;DHT22;49473;50.772;8.768;2022-07-29T04:13:21;17.90;99.90
2387;DHT22;49473;50.772;8.768;2022-07-29T04:15:48;18.00;99.90
2387;DHT22;49473;50.772;8.768;2022-07-29T04:18:15;18.10;99.90
2387;DHT22;49473;50.772;8.768;2022-07-29T04:20:41;18.00;99.90
2387;DHT22;49473;50.772;8.768;2022-07-29T04:23:08;17.80;99.90
2387;DHT22;49473;50.772;8.768;2022-07-29T04:25:37;17.90;99.90
2387;DHT22;49473;50.772;8.768;2022-07-29T04:28:05;17.90;99.90
2387;DHT22;49473;50.772;8.768;2022-07-29T04:30:34;17.90;99.90
2387;DHT22;49473;50.772;8.768;2022-07-29T04:33:02;17.90;99.90
2387;DHT22;49473;50.772;8.768;2022-07-29T04:35:29;18.10;99.90
2387;DHT22;49473;50.772;8.768;2022-07-29T04:37:56;18.20;99.90
2387;DHT22;49473;50.772;8.768;2022-07-29T04:40:23;18.20;99.90
2387;DHT22;49473;50.772;8.768;2022-07-29T04:42:49;18.10;99.90
2387;DHT22;49473;50.772;8.768;2022-07-29T04:45:16;17.90;99.90
2387;DHT22;49473;50.772;8.768;2022-07-29T04:47:44;17.80;99.90
2387;DHT22;49473;50.772;8.768;2022-07-29T04:50:11;17.80;99.90
2387;DHT22;49473;50.772;8.768;2022-07-29T04:52:38;17.90;99.90
2387;DHT22;49473;50.772;8.768;2022-07-29T04:55:06;18.00;99.90
2387;DHT22;49473;50.772;8.768;2022-07-29T04:57:32;18.00;99.90
2387;DHT22;49473;50.772;8.768;2022-07-29T04:59:59;18.00;99.90
2387;DHT22;49473;50.772;8.768;2022-07-29T05:02:26;18.00;99.90
2387;DHT22;49473;50.772;8.768;2022-07-29T05:04:54;17.40;99.90
2387;DHT22;49473;50.772;8.768;2022-07-29T05:07:21;16.80;99.90
2387;DHT22;49473;50.772;8.768;2022-07-29T05:09:48;16.10;99.90
2387;DHT22;49473;50.772;8.768;2022-07-29T05:12:14;15.60;99.90
2387;DHT22;49473;50.772;8.768;2022-07-29T05:14:41;15.30;99.90
2387;DHT22;49473;50.772;8.768;2022-07-29T05:17:08;15.20;99.90
2387;DHT22;49473;50.772;8.768;2022-07-29T05:19:35;15.00;99.90
2387;DHT22;49473;50.772;8.768;2022-07-29T05:22:03;14.90;99.90
2387;DHT22;49473;50.772;8.768;2022-07-29T05:24:30;14.90;99.90
2387;DHT22;49473;50.772;8.768;2022-07-29T05:26:56;15.00;99.90
2387;DHT22;49473;50.772;8.768;2022-07-29T05:29:23;15.00;99.90
2387;DHT22;49473;50.772;8.768;2022-07-29T05:31:50;15.10;99.90
2387;DHT22;49473;50.772;8.768;2022-07-29T05:34:18;15.30;99.90
2387;DHT22;49473;50.772;8.768;2022-07-29T05:36:45;15.40;99.90
2387;DHT22;49473;50.772;8.768;2022-07-29T05:39:13;15.50;99.90
2387;DHT22;49473;50.772;8.768;2022-07-29T05:41:40;15.60;99.90
2387;DHT22;49473;50.772;8.768;2022-07-29T05:44:06;15.70;99.90
2387;DHT22;49473;50.772;8.768;2022-07-29T05:46:33;15.70;99.90
2387;DHT22;49473;50.772;8.768;2022-07-29T05:49:00;15.60;99.90
2387;DHT22;49473;50.772;8.768;2022-07-29T05:51:28;15.60;99.90
2387;DHT22;49473;50.772;8.768;2022-07-29T05:53:55;15.50;99.90
2387;DHT22;49473;50.772;8.768;2022-07-29T05:56:23;15.50;99.90
2387;DHT22;49473;50.772;8.768;2022-07-29T05:58:50;15.70;99.90
2387;DHT22;49473;50.772;8.768;2022-07-29T06:01:17;15.70;99.90
2387;DHT22;49473;50.772;8.768;2022-07-29T06:03:44;15.90;99.90
2387;DHT22;49473;50.772;8.768;2022-07-29T06:06:11;16.00;99.90
2387;DHT22;49473;50.772;8.768;2022-07-29T06:08:38;16.10;99.90
2387;DHT22;49473;50.772;8.768;2022-07-29T06:11:06;15.90;99.90
2387;DHT22;49473;50.772;8.768;2022-07-29T06:13:35;16.00;99.90
2387;DHT22;49473;50.772;8.768;2022-07-29T06:16:01;16.10;99.90
2387;DHT22;49473;50.772;8.768;2022-07-29T06:18:28;16.10;99.90
2387;DHT22;49473;50.772;8.768;2022-07-29T06:20:55;16.10;99.90
2387;DHT22;49473;50.772;8.768;2022-07-29T06:23:22;16.30;99.90
2387;DHT22;49473;50.772;8.768;2022-07-29T06:25:49;16.40;99.90
2387;DHT22;49473;50.772;8.768;2022-07-29T06:28:15;16.70;99.90
2387;DHT22;49473;50.772;8.768;2022-07-29T06:30:43;16.90;99.90
2387;DHT22;49473;50.772;8.768;2022-07-29T06:33:16;17.10;99.90
2387;DHT22;49473;50.772;8.768;2022-07-29T06:35:43;17.40;99.90
2387;DHT22;49473;50.772;8.768;2022-07-29T06:38:10;17.60;99.90
2387;DHT22;49473;50.772;8.768;2022-07-29T06:40:41;17.60;99.90
2387;DHT22;49473;50.772;8.768;2022-07-29T06:43:25;17.90;99.90
2387;DHT22;49473;50.772;8.768;2022-07-29T06:45:53;18.30;99.90
2387;DHT22;49473;50.772;8.768;2022-07-29T06:48:20;18.70;99.90
2387;DHT22;49473;50.772;8.768;2022-07-29T06:50:47;18.70;99.90
2387;DHT22;49473;50.772;8.768;2022-07-29T06:53:14;18.60;99.90
2387;DHT22;49473;50.772;8.768;2022-07-29T06:55:41;18.70;99.90
2387;DHT22;49473;50.772;8.768;2022-07-29T06:58:08;19.00;99.90
2387;DHT22;49473;50.772;8.768;2022-07-29T07:00:35;19.30;99.90
2387;DHT22;49473;50.772;8.768;2022-07-29T07:03:03;19.50;99.90
2387;DHT22;49473;50.772;8.768;2022-07-29T07:05:30;20.00;99.90
2387;DHT22;49473;50.772;8.768;2022-07-29T07:07:56;20.30;99.90
2387;DHT22;49473;50.772;8.768;2022-07-29T07:10:23;20.50;99.90
2387;DHT22;49473;50.772;8.768;2022-07-29T07:12:50;20.50;99.90
2387;DHT22;49473;50.772;8.768;2022-07-29T07:15:17;20.70;99.90
2387;DHT22;49473;50.772;8.768;2022-07-29T07:17:47;20.80;99.90
2387;DHT22;49473;50.772;8.768;2022-07-29T07:20:15;20.90;99.90
2387;DHT22;49473;50.772;8.768;2022-07-29T07:22:42;20.60;99.90
2387;DHT22;49473;50.772;8.768;2022-07-29T07:25:09;20.40;99.90
2387;DHT22;49473;50.772;8.768;2022-07-29T07:27:36;20.60;99.90
2387;DHT22;49473;50.772;8.768;2022-07-29T07:30:04;20.40;99.90
2387;DHT22;49473;50.772;8.768;2022-07-29T07:32:32;20.10;99.90
2387;DHT22;49473;50.772;8.768;2022-07-29T07:35:00;19.80;99.90
2387;DHT22;49473;50.772;8.768;2022-07-29T07:37:28;19.80;99.90
2387;DHT22;49473;50.772;8.768;2022-07-29T07:39:54;19.70;99.90
2387;DHT22;49473;50.772;8.768;2022-07-29T07:42:21;19.60;99.90
2387;DHT22;49473;50.772;8.768;2022-07-29T07:44:48;19.50;99.90
2387;DHT22;49473;50.772;8.768;2022-07-29T07:47:15;19.30;99.90
2387;DHT22;49473;50.772;8.768;2022-07-29T07:49:45;19.10;99.90
2387;DHT22;49473;50.772;8.768;2022-07-29T07:52:12;19.10;99.90
2387;DHT22;49473;50.772;8.768;2022-07-29T07:54:40;19.30;99.90
2387;DHT22;49473;50.772;8.768;2022-07-29T07:57:06;19.30;99.90
2387;DHT22;49473;50.772;8.768;2022-07-29T07:59:33;19.30;99.90
2387;DHT22;49473;50.772;8.768;2022-07-29T08:02:00;19.20;99.90
2387;DHT22;49473;50.772;8.768;2022-07-29T08:04:27;19.20;99.90
2387;DHT22;49473;50.772;8.768;2022-07-29T08:06:54;19.30;99.90
2387;DHT22;49473;50.772;8.768;2022-07-29T08:09:21;19.30;99.90
2387;DHT22;49473;50.772;8.768;2022-07-29T08:11:49;19.30;99.90
2387;DHT22;49473;50.772;8.768;2022-07-29T08:14:15;19.50;99.90
2387;DHT22;49473;50.772;8.768;2022-07-29T08:16:42;19.50;99.90
2387;DHT22;49473;50.772;8.768;2022-07-29T08:19:09;19.60;99.90
2387;DHT22;49473;50.772;8.768;2022-07-29T08:21:37;19.60;99.90
2387;DHT22;49473;50.772;8.768;2022-07-29T08:24:05;19.50;99.90
2387;DHT22;49473;50.772;8.768;2022-07-29T08:26:51;19.70;99.90
2387;DHT22;49473;50.772;8.768;2022-07-29T08:29:17;20.60;99.90
2387;DHT22;49473;50.772;8.768;2022-07-29T08:31:44;21.90;99.90
2387;DHT22;49473;50.772;8.768;2022-07-29T08:34:11;23.10;99.90
2387;DHT22;49473;50.772;8.768;2022-07-29T08:36:38;23.40;99.90
2387;DHT22;49473;50.772;8.768;2022-07-29T08:39:05;23.00;99.90
2387;DHT22;49473;50.772;8.768;2022-07-29T08:41:32;22.80;99.90
2387;DHT22;49473;50.772;8.768;2022-07-29T08:44:00;22.50;99.90
2387;DHT22;49473;50.772;8.768;2022-07-29T08:46:27;22.80;99.90
2387;DHT22;49473;50.772;8.768;2022-07-29T08:48:55;23.40;99.90
2387;DHT22;49473;50.772;8.768;2022-07-29T08:51:22;23.30;99.90
2387;DHT22;49473;50.772;8.768;2022-07-29T08:53:49;23.60;99.90
2387;DHT22;49473;50.772;8.768;2022-07-29T08:56:18;24.30;99.90
2387;DHT22;49473;50.772;8.768;2022-07-29T08:58:46;24.90;99.90
2387;DHT22;49473;50.772;8.768;2022-07-29T09:01:17;25.20;99.90
2387;DHT22;49473;50.772;8.768;2022-07-29T09:03:44;25.50;99.90
2387;DHT22;49473;50.772;8.768;2022-07-29T09:06:13;24.70;99.90
2387;DHT22;49473;50.772;8.768;2022-07-29T09:08:41;24.90;99.90
2387;DHT22;49473;50.772;8.768;2022-07-29T09:11:08;24.80;99.90
2387;DHT22;49473;50.772;8.768;2022-07-29T09:13:35;26.00;99.90
2387;DHT22;49473;50.772;8.768;2022-07-29T09:16:03;27.80;99.90
2387;DHT22;49473;50.772;8.768;2022-07-29T09:18:36;28.20;99.90
2387;DHT22;49473;50.772;8.768;2022-07-29T09:21:04;28.20;99.90
2387;DHT22;49473;50.772;8.768;2022-07-29T09:24:05;28.30;99.90
2387;DHT22;49473;50.772;8.768;2022-07-29T09:26:33;27.60;99.90
2387;DHT22;49473;50.772;8.768;2022-07-29T09:29:08;26.80;99.90
2387;DHT22;49473;50.772;8.768;2022-07-29T09:31:36;26.50;99.90
2387;DHT22;49473;50.772;8.768;2022-07-29T09:34:05;25.10;99.90
2387;DHT22;49473;50.772;8.768;2022-07-29T09:36:39;24.70;99.90
2387;DHT22;49473;50.772;8.768;2022-07-29T09:39:06;24.30;99.90
2387;DHT22;49473;50.772;8.768;2022-07-29T09:41:48;25.00;99.90
2387;DHT22;49473;50.772;8.768;2022-07-29T09:44:15;26.10;99.90
2387;DHT22;49473;50.772;8.768;2022-07-29T09:46:56;25.80;99.90
2387;DHT22;49473;50.772;8.768;2022-07-29T09:49:25;24.90;99.90
2387;DHT22;49473;50.772;8.768;2022-07-29T09:52:06;25.10;99.90
2387;DHT22;49473;50.772;8.768;2022-07-29T09:54:33;24.70;99.90
2387;DHT22;49473;50.772;8.768;2022-07-29T09:57:04;24.10;99.90
2387;DHT22;49473;50.772;8.768;2022-07-29T09:59:31;24.00;99.90
2387;DHT22;49473;50.772;8.768;2022-07-29T10:01:58;24.30;99.90
2387;DHT22;49473;50.772;8.768;2022-07-29T10:04:38;24.90;99.90
2387;DHT22;49473;50.772;8.768;2022-07-29T10:07:05;25.00;99.90
2387;DHT22;49473;50.772;8.768;2022-07-29T10:09:32;24.70;99.90
2387;DHT22;49473;50.772;8.768;2022-07-29T10:12:04;25.00;99.90
2387;DHT22;49473;50.772;8.768;2022-07-29T10:14:32;25.40;99.90
2387;DHT22;49473;50.772;8.768;2022-07-29T10:16:59;25.90;99.90
2387;DHT22;49473;50.772;8.768;2022-07-29T10:19:28;26.20;99.90
2387;DHT22;49473;50.772;8.768;2022-07-29T10:21:58;26.20;99.90
2387;DHT22;49473;50.772;8.768;2022-07-29T10:24:26;26.50;99.90
2387;DHT22;49473;50.772;8.768;2022-07-29T10:26:55;26.60;99.90
2387;DHT22;49473;50.772;8.768;2022-07-29T10:29:22;25.90;99.90
2387;DHT22;49473;50.772;8.768;2022-07-29T10:31:56;25.90;99.90
2387;DHT22;49473;50.772;8.768;2022-07-29T10:34:36;26.30;99.90
2387;DHT22;49473;50.772;8.768;2022-07-29T10:37:18;26.60;99.90
2387;DHT22;49473;50.772;8.768;2022-07-29T10:39:56;26.70;99.90
2387;DHT22;49473;50.772;8.768;2022-07-29T10:42:29;27.40;99.90
2387;DHT22;49473;50.772;8.768;2022-07-29T10:44:56;27.90;99.90
2387;DHT22;49473;50.772;8.768;2022-07-29T10:47:24;27.20;99.90
2387;DHT22;49473;50.772;8.768;2022-07-29T10:49:56;26.20;99.90
2387;DHT22;49473;50.772;8.768;2022-07-29T10:52:25;25.60;99.90
2387;DHT22;49473;50.772;8.768;2022-07-29T10:55:31;25.10;99.90
2387;DHT22;49473;50.772;8.768;2022-07-29T10:58:11;25.00;99.90
2387;DHT22;49473;50.772;8.768;2022-07-29T11:00:38;24.90;99.90
2387;DHT22;49473;50.772;8.768;2022-07-29T11:03:05;25.00;99.90
2387;DHT22;49473;50.772;8.768;2022-07-29T11:05:52;25.50;99.90
2387;DHT22;49473;50.772;8.768;2022-07-29T11:08:22;25.40;99.90
2387;DHT22;49473;50.772;8.768;2022-07-29T11:10:52;25.10;99.90
2387;DHT22;49473;50.772;8.768;2022-07-29T11:13:45;25.40;99.90
2387;DHT22;49473;50.772;8.768;2022-07-29T11:16:13;27.00;99.90
2387;DHT22;49473;50.772;8.768;2022-07-29T11:21:42;27.30;99.90
2387;DHT22;49473;50.772;8.768;2022-07-29T11:24:13;26.70;99.90
2387;DHT22;49473;50.772;8.768;2022-07-29T11:26:40;26.40;99.90
2387;DHT22;49473;50.772;8.768;2022-07-29T11:29:17;26.80;99.90
2387;DHT22;49473;50.772;8.768;2022-07-29T11:31:46;27.00;99.90
2387;DHT22;49473;50.772;8.768;2022-07-29T11:34:23;27.10;99.90
2387;DHT22;49473;50.772;8.768;2022-07-29T11:37:21;27.20;99.90
2387;DHT22;49473;50.772;8.768;2022-07-29T11:40:09;28.30;99.90
2387;DHT22;49473;50.772;8.768;2022-07-29T11:42:43;30.30;99.90
2387;DHT22;49473;50.772;8.768;2022-07-29T11:45:16;32.10;99.90
2387;DHT22;49473;50.772;8.768;2022-07-29T11:47:51;33.50;95.70
2387;DHT22;49473;50.772;8.768;2022-07-29T11:50:28;34.70;92.00
2387;DHT22;49473;50.772;8.768;2022-07-29T11:52:55;35.30;89.80
2387;DHT22;49473;50.772;8.768;2022-07-29T11:55:25;36.10;84.20
2387;DHT22;49473;50.772;8.768;2022-07-29T11:57:53;35.80;79.70
2387;DHT22;49473;50.772;8.768;2022-07-29T12:00:23;35.20;81.10
2387;DHT22;49473;50.772;8.768;2022-07-29T12:02:51;34.50;81.90
2387;DHT22;49473;50.772;8.768;2022-07-29T12:05:18;35.50;78.80
2387;DHT22;49473;50.772;8.768;2022-07-29T12:07:46;37.10;74.30
2387;DHT22;49473;50.772;8.768;2022-07-29T12:10:14;38.30;69.30
2387;DHT22;49473;50.772;8.768;2022-07-29T12:12:42;38.90;66.40
2387;DHT22;49473;50.772;8.768;2022-07-29T12:15:13;38.00;65.50
2387;DHT22;49473;50.772;8.768;2022-07-29T12:17:40;36.30;66.50
2387;DHT22;49473;50.772;8.768;2022-07-29T12:20:07;35.40;70.10
2387;DHT22;49473;50.772;8.768;2022-07-29T12:22:36;36.90;68.20
2387;DHT22;49473;50.772;8.768;2022-07-29T12:25:06;37.80;65.10
2387;DHT22;49473;50.772;8.768;2022-07-29T12:27:35;38.00;65.10
2387;DHT22;49473;50.772;8.768;2022-07-29T12:30:06;38.50;63.80
2387;DHT22;49473;50.772;8.768;2022-07-29T12:32:34;38.90;62.40
2387;DHT22;49473;50.772;8.768;2022-07-29T12:35:05;39.40;60.80
2387;DHT22;49473;50.772;8.768;2022-07-29T12:37:33;37.70;58.90
2387;DHT22;49473;50.772;8.768;2022-07-29T12:40:00;37.70;62.00
2387;DHT22;49473;50.772;8.768;2022-07-29T12:42:27;36.10;62.30
2387;DHT22;49473;50.772;8.768;2022-07-29T12:44:54;36.90;63.00
2387;DHT22;49473;50.772;8.768;2022-07-29T12:47:23;38.20;60.90
2387;DHT22;49473;50.772;8.768;2022-07-29T12:49:52;39.30;59.30
2387;DHT22;49473;50.772;8.768;2022-07-29T12:52:35;39.80;58.80
2387;DHT22;49473;50.772;8.768;2022-07-29T12:55:03;40.10;57.90
2387;DHT22;49473;50.772;8.768;2022-07-29T12:57:30;40.80;57.00
2387;DHT22;49473;50.772;8.768;2022-07-29T13:00:07;41.00;55.40
2387;DHT22;49473;50.772;8.768;2022-07-29T13:02:38;39.40;54.50
2387;DHT22;49473;50.772;8.768;2022-07-29T13:05:06;38.90;56.80
2387;DHT22;49473;50.772;8.768;2022-07-29T13:07:35;38.80;55.90
2387;DHT22;49473;50.772;8.768;2022-07-29T13:10:11;38.50;56.60
2387;DHT22;49473;50.772;8.768;2022-07-29T13:12:38;37.30;57.60
2387;DHT22;49473;50.772;8.768;2022-07-29T13:15:13;37.60;57.50
2387;DHT22;49473;50.772;8.768;2022-07-29T13:17:42;38.80;57.20
2387;DHT22;49473;50.772;8.768;2022-07-29T13:20:11;39.20;55.90
2387;DHT22;49473;50.772;8.768;2022-07-29T13:22:39;39.80;55.30
2387;DHT22;49473;50.772;8.768;2022-07-29T13:25:08;40.10;55.00
2387;DHT22;49473;50.772;8.768;2022-07-29T13:27:37;39.40;54.70
2387;DHT22;49473;50.772;8.768;2022-07-29T13:30:06;37.50;56.30
2387;DHT22;49473;50.772;8.768;2022-07-29T13:32:34;37.20;58.40
2387;DHT22;49473;50.772;8.768;2022-07-29T13:35:04;37.20;57.10
2387;DHT22;49473;50.772;8.768;2022-07-29T13:37:32;38.00;57.00
2387;DHT22;49473;50.772;8.768;2022-07-29T13:40:00;38.20;56.50
2387;DHT22;49473;50.772;8.768;2022-07-29T13:42:28;38.30;56.80
2387;DHT22;49473;50.772;8.768;2022-07-29T13:44:55;38.10;56.10
2387;DHT22;49473;50.772;8.768;2022-07-29T13:47:22;37.30;56.10
2387;DHT22;49473;50.772;8.768;2022-07-29T16:14:55;25.40;98.90
2387;DHT22;49473;50.772;8.768;2022-07-29T16:17:22;25.20;99.90
2387;DHT22;49473;50.772;8.768;2022-07-29T16:19:49;25.10;99.90
2387;DHT22;49473;50.772;8.768;2022-07-29T16:22:15;24.90;99.90
2387;DHT22;49473;50.772;8.768;2022-07-29T16:24:42;24.90;99.90
2387;DHT22;49473;50.772;8.768;2022-07-29T16:27:10;24.80;99.90
2387;DHT22;49473;50.772;8.768;2022-07-29T16:29:37;24.80;99.90
2387;DHT22;49473;50.772;8.768;2022-07-29T16:32:04;24.90;99.90
2387;DHT22;49473;50.772;8.768;2022-07-29T16:34:31;25.00;99.90
2387;DHT22;49473;50.772;8.768;2022-07-29T16:36:58;25.10;99.90
2387;DHT22;49473;50.772;8.768;2022-07-29T16:39:25;25.20;99.90
2387;DHT22;49473;50.772;8.768;2022-07-29T16:41:51;25.60;99.90
2387;DHT22;49473;50.772;8.768;2022-07-29T16:44:19;25.70;99.90
2387;DHT22;49473;50.772;8.768;2022-07-29T16:46:46;25.50;99.90
2387;DHT22;49473;50.772;8.768;2022-07-29T16:49:13;25.40;99.90
2387;DHT22;49473;50.772;8.768;2022-07-29T16:51:40;25.40;99.90
2387;DHT22;49473;50.772;8.768;2022-07-29T16:54:06;25.20;99.90
2387;DHT22;49473;50.772;8.768;2022-07-29T16:56:35;24.90;99.90
2387;DHT22;49473;50.772;8.768;2022-07-29T16:59:02;24.40;99.90
2387;DHT22;49473;50.772;8.768;2022-07-29T17:01:30;24.20;99.90
2387;DHT22;49473;50.772;8.768;2022-07-29T17:03:57;23.90;99.90
2387;DHT22;49473;50.772;8.768;2022-07-29T17:06:33;23.90;99.90
2387;DHT22;49473;50.772;8.768;2022-07-29T17:09:00;23.80;99.90
2387;DHT22;49473;50.772;8.768;2022-07-29T17:11:27;23.60;99.90
2387;DHT22;49473;50.772;8.768;2022-07-29T17:16:23;23.20;99.90
2387;DHT22;49473;50.772;8.768;2022-07-29T17:18:51;23.00;99.90
2387;DHT22;49473;50.772;8.768;2022-07-29T17:21:18;22.80;99.90
2387;DHT22;49473;50.772;8.768;2022-07-29T17:23:45;22.60;99.90
2387;DHT22;49473;50.772;8.768;2022-07-29T17:26:12;22.50;99.90
2387;DHT22;49473;50.772;8.768;2022-07-29T17:28:39;22.40;99.90
2387;DHT22;49473;50.772;8.768;2022-07-29T17:31:06;22.20;99.90
2387;DHT22;49473;50.772;8.768;2022-07-29T17:48:35;21.40;99.90
2387;DHT22;49473;50.772;8.768;2022-07-29T17:51:04;21.30;99.90
2387;DHT22;49473;50.772;8.768;2022-07-29T17:53:30;21.20;99.90
2387;DHT22;49473;50.772;8.768;2022-07-29T17:55:57;21.10;99.90
2387;DHT22;49473;50.772;8.768;2022-07-29T17:58:24;21.00;99.90
2387;DHT22;49473;50.772;8.768;2022-07-29T18:00:51;20.90;99.90
2387;DHT22;49473;50.772;8.768;2022-07-29T18:03:18;20.90;99.90
2387;DHT22;49473;50.772;8.768;2022-07-29T18:05:45;20.90;99.90
2387;DHT22;49473;50.772;8.768;2022-07-29T18:08:13;20.90;99.90
2387;DHT22;49473;50.772;8.768;2022-07-29T18:10:41;20.80;99.90
2387;DHT22;49473;50.772;8.768;2022-07-29T18:13:08;20.70;99.90
2387;DHT22;49473;50.772;8.768;2022-07-29T18:15:37;20.70;99.90
